x

North Hecate Strait (46183) Wave Buoy

1:00am - Wed 30th Jul 2014 All times are PDT. -7 hours from GMT.

  • Sig Wave height 1.6ft
  • Peak Period 6s
  • Wind
    11mph, 13mph gusts
  • Sea Temp 56°f
  • Air Temp 57°f
  • Sea Pressure 1022.3mb
  • North Hecate Strait
  • North Hecate Strait

More Historic Weather Station data

Upgrade to MSW Pro to gain access to the past 30 days of data for over 8000 Wavebouys and Weather Stations around the globe.

Join Pro

Comparision Forecast

View Surf forecast
   
Wed 07/30 1:00am 1.6ft 6s 11 13 mph 1022.3mb 56f 57f
12:00am 1.6ft 5s 4
mph
1022.2mb 56f 56f
Tue 07/29 11:00pm 1.6ft 5s 9
mph
1022.3mb 56f 56f
10:00pm 2ft 4s 9 11 mph 1022.2mb 56f 57f
9:00pm 2ft 4s 11 13 mph 1021.7mb 56f 57f
8:00pm 2.5ft 4s 13 16 mph 1021.5mb 56f 57f
7:00pm 2.5ft 4s 13 18 mph 1021.3mb 56f 58f
6:00pm 3ft 5s 16 20 mph 1020.9mb 56f 57f
5:00pm 3ft 5s 18 22 mph 1020.5mb 56f 58f
4:00pm 3ft 6s 16 20 mph 1020.5mb 56f 58f
3:00pm 3.5ft 6s 16 20 mph 1020.1mb 56f 57f
2:00pm 4ft 5s 18 20 mph 1019.7mb 56f 57f
1:00pm 4.5ft 6s 16 20 mph 1019.5mb 56f 57f
12:00pm 4.5ft 6s 18 20 mph 1019mb 56f 57f
11:00am 4.5ft 5s 18 25 mph 1018.2mb 56f 57f
10:00am 5ft 6s 22 27 mph 1017.1mb 56f 57f
9:00am 4.5ft 6s 22 27 mph 1015.8mb 56f 57f
8:00am 5ft 6s 20 25 mph 1015.4mb 56f 57f
7:00am 5ft 6s 22 27 mph 1015.1mb 56f 57f
6:00am 5.5ft 6s 25 29 mph 1014.9mb 56f 57f
5:00am 5ft 6s 25 31 mph 1014.7mb 56f 57f
4:00am 5ft 6s 20 22 mph 1014.8mb 56f 57f
3:00am 5.5ft 6s 22 27 mph 1014.7mb 56f 58f
2:00am 6ft 6s 25 29 mph 1014.9mb 56f 57f
1:00am 6ft 6s 25 29 mph 1015.1mb 56f 57f
12:00am 5.5ft 6s 25 29 mph 1015.4mb 56f 57f
Mon 07/28 11:00pm 6ft 6s 22 29 mph 1015.9mb 56f 57f
10:00pm 5.5ft 6s 27 31 mph 1015.9mb 56f 57f
9:00pm 6ft 6s 25 29 mph 1016.1mb 56f 57f
8:00pm 6ft 7s 25 29 mph 1016.4mb 56f 57f
7:00pm 6ft 6s 22 27 mph 1016.7mb 56f 57f
6:00pm 6ft 6s 22 29 mph 1016.9mb 56f 57f
5:00pm 6ft 6s 25 29 mph 1017mb 56f 57f
4:00pm 5.5ft 6s 25 29 mph 1017.2mb 56f 57f
3:00pm 5.5ft 5s 25 29 mph 1017.6mb 56f 57f
2:00pm 5ft 5s 27
mph
1017.5mb 56f 57f
1:00pm 4.5ft 5s 27 34 mph 1017.8mb 56f 56f
12:00pm 3.5ft 4s 27 34 mph 1018mb 56f 56f
11:00am 3ft 4s 22 27 mph 1018.4mb 56f 57f
10:00am 3ft 4s 20 25 mph 1018.7mb 56f 57f
9:00am 3ft 5s 18 22 mph 1019mb 56f 56f
8:00am 3ft 5s 18 22 mph 1019.4mb 56f 56f
7:00am 2.5ft 4s 18 22 mph 1019.2mb 56f 56f
6:00am 2.5ft 4s 16 20 mph 1019.4mb 56f 56f
5:00am 2.5ft 4s 16 18 mph 1019.6mb 56f 56f
4:00am 2ft 5s 16 18 mph 1019.5mb 56f 56f
3:00am 2ft 5s 16 18 mph 1019.8mb 56f 56f
2:00am 2.5ft 5s 13 18 mph 1020mb 56f 56f
1:00am 2.5ft 5s 16 20 mph 1020.3mb 56f 56f
12:00am 2.5ft 4s 18 20 mph 1020.5mb 56f 56f
Sun 07/27 11:00pm 3.5ft 4s 18 20 mph 1020.9mb 56f 56f
10:00pm 3.5ft 5s 18 22 mph 1020.9mb 56f 56f
9:00pm 3.5ft 5s 20 22 mph 1020.9mb 56f 56f
8:00pm 3.5ft 5s 18 20 mph 1021mb 56f 57f
7:00pm 3.5ft 6s 18 22 mph 1020.9mb 56f 57f
6:00pm 3.5ft 5s 18 20 mph 1021.2mb 56f 57f
5:00pm 3.5ft 6s 20 22 mph 1021.3mb 56f 57f
4:00pm 3ft 5s 20 22 mph 1021.2mb 56f 57f
3:00pm 3.5ft 5s 20 25 mph 1020.9mb 56f 57f
2:00pm 3.5ft 5s 18 20 mph 1020.8mb 56f 57f
1:00pm 3.5ft 5s 20 25 mph 1020.4mb 56f 57f
12:00pm 3.5ft 5s 20 25 mph 1020.5mb 56f 57f
11:00am 3.5ft 5s 22 27 mph 1020.4mb 56f 57f
10:00am 4ft 4s 22 25 mph 1020.3mb 56f 57f
9:00am 4ft 5s 20 25 mph 1020.1mb 56f 57f
8:00am 3.5ft 5s 18 22 mph 1020.1mb 56f 57f
7:00am 3.5ft 7s 16 20 mph 1020mb 56f 57f
6:00am 4ft 7s 18 22 mph 1019.6mb 56f 57f
5:00am 4ft 7s 18 22 mph 1019.4mb 55f 57f
4:00am 4.5ft 7s 18 22 mph 1019.1mb 55f 57f
3:00am 4.5ft 6s 18 22 mph 1019mb 56f 57f
2:00am 5ft 7s 18 22 mph 1018.8mb 56f 57f
1:00am 5ft 7s 18 22 mph 1018.8mb 56f 57f
12:00am 5ft 7s 20 25 mph 1018.7mb 56f 57f
Sat 07/26 11:00pm 5ft 7s 20 25 mph 1018.5mb 56f 57f
10:00pm 5ft 6s 18 22 mph 1018.7mb 56f 57f
9:00pm 4.5ft 6s 20 25 mph 1018.4mb 56f 57f
8:00pm 5ft 6s 20 25 mph 1018.2mb 56f 57f
7:00pm 5.5ft 7s 22 25 mph 1017.9mb 56f 57f
6:00pm 6ft 6s 20 27 mph 1017.6mb 56f 57f
5:00pm 6ft 6s 25 29 mph 1017.5mb 56f 57f
4:00pm 6ft 6s 27 31 mph 1017.2mb 57f 57f
3:00pm 5ft 6s 25 29 mph 1017.4mb 57f 57f
2:00pm 5ft 5s 27 31 mph 1017.1mb 57f 57f
1:00pm 4.5ft 5s 25 31 mph 1016.9mb 57f 57f
12:00pm 4ft 4s 25 29 mph 1016.9mb 57f 57f
11:00am 3.5ft 5s 22 27 mph 1016.7mb 56f 57f
10:00am 3.5ft 5s 22 25 mph 1016.5mb 56f 57f